Sr39 — SR39 — position and weather

sailwx.info

Track history (hours):
 
Tides and Currents Weather Stations Pressure Air Temp Water Temp Dewpoint Dewpoint Depression Visibility Wind Speed Wind Dir Waves Ship Positions

Sr39

Last reported at 2018-May-25 11:59 UTC. Time now 2018-May-28 05:05 UTC.
Position N 37°44' W 025°40'.

Length 8 m.

Type: SAR. MMSI: 263058005.

Date/timePositionNaut miles runAvg speedWind from/ knotsBaromVisibWave heightAir tempDewpointWater temp
2018-May-25 11:59N 37°44' W 025°40'0 0.8
2018-May-25 11:29N 37°44' W 025°40'0 0.0
2018-May-25 10:59N 37°44' W 025°40'0 0.0
2018-May-25 10:29N 37°44' W 025°40'0 0.0
2018-May-25 09:59N 37°44' W 025°40'0 0.0
2018-May-24 16:15N 37°44' W 025°40'0 1.0
2018-May-24 16:00N 37°44' W 025°40'11 8.0
2018-May-24 14:37N 37°42' W 025°26'1 2.6
2018-May-24 14:06N 37°42' W 025°27'730.4
2018-May-24 13:52N 37°44' W 025°36'3 8.7
2018-May-24 13:29N 37°44' W 025°40'  
2018-May-20 17:20N 37°44' W 025°40'0 0.2
2018-May-20 16:58N 37°44' W 025°40'0 0.0
2018-May-20 16:28N 37°44' W 025°40'0 0.0
2018-May-20 15:58N 37°44' W 025°40'0 0.0
2018-May-20 15:28N 37°44' W 025°40'0 0.0
2018-May-20 14:58N 37°44' W 025°40'0 0.5
2018-May-20 14:29N 37°44' W 025°40'0 0.4
2018-May-20 13:58N 37°44' W 025°40'0 0.0
2018-May-20 13:28N 37°44' W 025°40'0 0.0
2018-May-20 12:58N 37°44' W 025°40'0 0.9
2018-May-20 12:30N 37°44' W 025°40'0 0.0
2018-May-20 12:00N 37°44' W 025°40'0 0.2
2018-May-20 11:30N 37°44' W 025°40'0 0.1
2018-May-20 10:59N 37°44' W 025°40'1 1.2
2018-May-20 10:30N 37°44' W 025°39'1 1.2
2018-May-20 10:00N 37°44' W 025°40'0 0.0
2018-May-19 17:00N 37°44' W 025°40'1 1.1
2018-May-19 16:30N 37°44' W 025°39'1 1.0
2018-May-19 16:00N 37°44' W 025°40'0 0.0
2018-May-19 15:27N 37°44' W 025°40'0 0.0
2018-May-19 15:00N 37°44' W 025°40'0 0.0
2018-May-19 14:30N 37°44' W 025°40'0 0.5
2018-May-19 14:00N 37°44' W 025°40'0 0.4
2018-May-19 13:29N 37°44' W 025°40'0 0.0
2018-May-19 12:59N 37°44' W 025°40'0 0.0
2018-May-19 12:29N 37°44' W 025°40'0 0.9
2018-May-19 11:59N 37°44' W 025°40'0 0.0
2018-May-19 11:29N 37°44' W 025°40'1 1.9
2018-May-19 11:00N 37°44' W 025°39'0 0.5
2018-May-19 10:29N 37°44' W 025°38'1 2.2
2018-May-19 09:58N 37°44' W 025°40'0 0.0
2018-May-19 09:28N 37°44' W 025°40'  
Track history (hours):
 
Tides and Currents Weather Stations Pressure Air Temp Water Temp Dewpoint Dewpoint Depression Visibility Wind Speed Wind Dir Waves Ship Positions

Sr39

Last reported at 2018-May-25 11:59 UTC. Time now 2018-May-28 05:05 UTC.
Position N 37°44' W 025°40'.

Length 8 m.

Type: SAR. MMSI: 263058005.

Date/timePositionNaut miles runAvg speedWind from/ knotsBaromVisibWave heightAir tempDewpointWater temp
2018-May-25 11:59N 37°44' W 025°40'0 0.8
2018-May-25 11:29N 37°44' W 025°40'0 0.0
2018-May-25 10:59N 37°44' W 025°40'0 0.0
2018-May-25 10:29N 37°44' W 025°40'0 0.0
2018-May-25 09:59N 37°44' W 025°40'0 0.0
2018-May-24 16:15N 37°44' W 025°40'0 1.0
2018-May-24 16:00N 37°44' W 025°40'11 8.0
2018-May-24 14:37N 37°42' W 025°26'1 2.6
2018-May-24 14:06N 37°42' W 025°27'730.4
2018-May-24 13:52N 37°44' W 025°36'3 8.7
2018-May-24 13:29N 37°44' W 025°40'  
2018-May-20 17:20N 37°44' W 025°40'0 0.2
2018-May-20 16:58N 37°44' W 025°40'0 0.0
2018-May-20 16:28N 37°44' W 025°40'0 0.0
2018-May-20 15:58N 37°44' W 025°40'0 0.0
2018-May-20 15:28N 37°44' W 025°40'0 0.0
2018-May-20 14:58N 37°44' W 025°40'0 0.5
2018-May-20 14:29N 37°44' W 025°40'0 0.4
2018-May-20 13:58N 37°44' W 025°40'0 0.0
2018-May-20 13:28N 37°44' W 025°40'0 0.0
2018-May-20 12:58N 37°44' W 025°40'0 0.9
2018-May-20 12:30N 37°44' W 025°40'0 0.0
2018-May-20 12:00N 37°44' W 025°40'0 0.2
2018-May-20 11:30N 37°44' W 025°40'0 0.1
2018-May-20 10:59N 37°44' W 025°40'1 1.2
2018-May-20 10:30N 37°44' W 025°39'1 1.2
2018-May-20 10:00N 37°44' W 025°40'0 0.0
2018-May-19 17:00N 37°44' W 025°40'1 1.1
2018-May-19 16:30N 37°44' W 025°39'1 1.0
2018-May-19 16:00N 37°44' W 025°40'0 0.0
2018-May-19 15:27N 37°44' W 025°40'0 0.0
2018-May-19 15:00N 37°44' W 025°40'0 0.0
2018-May-19 14:30N 37°44' W 025°40'0 0.5
2018-May-19 14:00N 37°44' W 025°40'0 0.4
2018-May-19 13:29N 37°44' W 025°40'0 0.0
2018-May-19 12:59N 37°44' W 025°40'0 0.0
2018-May-19 12:29N 37°44' W 025°40'0 0.9
2018-May-19 11:59N 37°44' W 025°40'0 0.0
2018-May-19 11:29N 37°44' W 025°40'1 1.9
2018-May-19 11:00N 37°44' W 025°39'0 0.5
2018-May-19 10:29N 37°44' W 025°38'1 2.2
2018-May-19 09:58N 37°44' W 025°40'0 0.0
2018-May-19 09:28N 37°44' W 025°40'  

Dump ship's entire track history